createdAt,value
2023-07-02T00:00:01.060Z,94127
2023-07-02T00:03:26.357Z,94133
2023-07-02T00:06:51.386Z,94126
2023-07-02T00:10:16.545Z,94117
2023-07-02T00:13:41.732Z,94112
2023-07-02T00:17:06.975Z,94114
2023-07-02T00:20:32.090Z,94122
2023-07-02T00:23:57.228Z,94123
2023-07-02T00:27:22.414Z,94121
2023-07-02T00:30:48.113Z,94116
2023-07-02T00:34:12.749Z,94121
2023-07-02T00:37:37.908Z,94128
2023-07-02T00:41:03.036Z,94137
2023-07-02T00:44:28.220Z,94134
2023-07-02T00:47:53.437Z,94138
2023-07-02T00:51:18.546Z,94135
2023-07-02T00:54:43.795Z,94130
2023-07-02T00:58:08.939Z,94133
2023-07-02T01:01:34.133Z,94125
2023-07-02T01:04:59.291Z,94128
2023-07-02T01:08:24.446Z,94128
2023-07-02T01:11:49.646Z,94128
2023-07-02T01:15:14.816Z,94127
2023-07-02T01:18:40.015Z,94132
2023-07-02T01:22:05.178Z,94123
2023-07-02T01:25:30.340Z,94134
2023-07-02T01:28:55.540Z,94135
2023-07-02T01:32:20.726Z,94133
2023-07-02T01:35:45.891Z,94135
2023-07-02T01:39:11.077Z,94141
2023-07-02T01:42:36.230Z,94137
2023-07-02T01:46:01.470Z,94145
2023-07-02T01:49:26.588Z,94149
2023-07-02T01:52:51.750Z,94155
2023-07-02T01:56:16.925Z,94156
2023-07-02T01:59:42.151Z,94157
2023-07-02T02:03:07.417Z,94156
2023-07-02T02:06:32.521Z,94145
2023-07-02T02:09:57.689Z,94143
2023-07-02T02:13:22.869Z,94148
2023-07-02T02:16:48.209Z,94154
2023-07-02T02:20:13.243Z,94157
2023-07-02T02:23:38.400Z,94156
2023-07-02T02:27:03.572Z,94156
2023-07-02T02:30:28.743Z,94161
2023-07-02T02:33:53.971Z,94158
2023-07-02T02:37:19.199Z,94150
2023-07-02T02:40:44.378Z,94159
2023-07-02T02:44:09.554Z,94154
2023-07-02T02:47:34.735Z,94158
2023-07-02T02:50:59.923Z,94156
2023-07-02T02:54:25.140Z,94148
2023-07-02T02:57:50.224Z,94150
2023-07-02T03:01:15.430Z,94153
2023-07-02T03:04:40.600Z,94153
2023-07-02T03:08:05.733Z,94159
2023-07-02T03:11:30.954Z,94162
2023-07-02T03:14:56.064Z,94165
2023-07-02T03:18:21.254Z,94163
2023-07-02T03:21:46.400Z,94166
2023-07-02T03:25:11.556Z,94172
2023-07-02T03:28:36.739Z,94177
2023-07-02T03:32:01.924Z,94171
2023-07-02T03:35:27.074Z,94181
2023-07-02T03:38:52.256Z,94175
2023-07-02T03:42:17.412Z,94176
2023-07-02T03:45:42.585Z,94175
2023-07-02T03:49:07.704Z,94176
2023-07-02T03:52:32.869Z,94168
2023-07-02T03:55:58.046Z,94178
2023-07-02T03:59:23.230Z,94181
2023-07-02T04:02:48.499Z,94187
2023-07-02T04:06:13.577Z,94188
2023-07-02T04:09:38.747Z,94191
2023-07-02T04:13:03.919Z,94195
2023-07-02T04:16:29.101Z,94195
2023-07-02T04:19:54.294Z,94199
2023-07-02T04:23:19.442Z,94205
2023-07-02T04:27:20.476Z,94208
2023-07-02T04:30:09.805Z,94210
2023-07-02T04:33:34.937Z,94218
2023-07-02T04:37:00.126Z,94224
2023-07-02T04:40:25.269Z,94227
2023-07-02T04:43:50.419Z,94231
2023-07-02T04:47:15.576Z,94222
2023-07-02T04:50:40.738Z,94233
2023-07-02T04:54:05.938Z,94238
2023-07-02T04:57:31.100Z,94239
2023-07-02T05:00:56.323Z,94237
2023-07-02T05:04:21.469Z,94247
2023-07-02T05:07:46.636Z,94244
2023-07-02T05:11:11.865Z,94243
2023-07-02T05:14:37.024Z,94244
2023-07-02T05:18:02.227Z,94240
2023-07-02T05:21:27.342Z,94245
2023-07-02T05:24:52.528Z,94242
2023-07-02T05:28:17.718Z,94244
2023-07-02T05:31:42.979Z,94242
2023-07-02T05:35:08.022Z,94244
2023-07-02T05:38:33.196Z,94254
2023-07-02T05:41:58.373Z,94249
2023-07-02T05:45:23.576Z,94254
2023-07-02T05:48:48.728Z,94256
2023-07-02T05:52:13.931Z,94256
2023-07-02T05:55:40.305Z,94264
2023-07-02T05:59:04.274Z,94266
2023-07-02T06:02:29.557Z,94272
2023-07-02T06:05:54.784Z,94274
2023-07-02T06:09:20.151Z,94282
2023-07-02T06:12:45.364Z,94284
2023-07-02T06:16:11.116Z,94283
2023-07-02T06:19:36.353Z,94284
2023-07-02T06:23:01.665Z,94285
2023-07-02T06:26:26.975Z,94287
2023-07-02T06:29:52.373Z,94291
2023-07-02T06:33:17.674Z,94286
2023-07-02T06:36:44.650Z,94287
2023-07-02T06:40:09.952Z,94291
2023-07-02T06:43:35.233Z,94293
2023-07-02T06:47:00.587Z,94288
2023-07-02T06:50:25.692Z,94296
2023-07-02T06:53:50.890Z,94297
2023-07-02T06:57:16.091Z,94309
2023-07-02T07:00:41.266Z,94307
2023-07-02T07:04:06.427Z,94311
2023-07-02T07:07:32.247Z,94315
2023-07-02T07:10:57.462Z,94313
2023-07-02T07:14:22.653Z,94312
2023-07-02T07:17:47.833Z,94307
2023-07-02T07:21:12.985Z,94315
2023-07-02T07:24:38.373Z,94310
2023-07-02T07:28:03.619Z,94319
2023-07-02T07:31:28.842Z,94314
2023-07-02T07:34:54.034Z,94306
2023-07-02T07:38:19.301Z,94308
2023-07-02T07:41:44.474Z,94308
2023-07-02T07:45:09.675Z,94317
2023-07-02T07:48:34.825Z,94313
2023-07-02T07:52:00.018Z,94322
2023-07-02T07:55:25.282Z,94323
2023-07-02T07:58:50.484Z,94328
2023-07-02T08:02:15.777Z,94329
2023-07-02T08:05:40.933Z,94327
2023-07-02T08:09:06.069Z,94334
2023-07-02T08:12:31.262Z,94334
2023-07-02T08:15:56.555Z,94337
2023-07-02T08:19:21.772Z,94337
2023-07-02T08:22:46.974Z,94341
2023-07-02T08:26:12.205Z,94335
2023-07-02T08:29:37.424Z,94336
2023-07-02T08:33:02.641Z,94339
2023-07-02T08:36:27.795Z,94340
2023-07-02T08:39:52.920Z,94343
2023-07-02T08:43:18.117Z,94338
2023-07-02T08:46:43.304Z,94350
2023-07-02T08:50:08.460Z,94357
2023-07-02T08:53:33.660Z,94367
2023-07-02T08:56:58.827Z,94366
2023-07-02T09:00:24.081Z,94353
2023-07-02T09:03:49.338Z,94359
2023-07-02T09:07:14.475Z,94362
2023-07-02T09:10:39.755Z,94362
2023-07-02T09:14:05.105Z,94367
2023-07-02T09:17:30.303Z,94376
2023-07-02T09:20:55.484Z,94370
2023-07-02T09:24:20.657Z,94376
2023-07-02T09:27:45.840Z,94371
2023-07-02T09:31:11.062Z,94379
2023-07-02T09:34:36.384Z,94382
2023-07-02T09:38:01.412Z,94384
2023-07-02T09:41:26.549Z,94382
2023-07-02T09:44:51.782Z,94388
2023-07-02T09:48:16.927Z,94386
2023-07-02T09:51:42.112Z,94385
2023-07-02T09:55:07.288Z,94389
2023-07-02T09:58:32.510Z,94393
2023-07-02T10:01:57.836Z,94397
2023-07-02T10:05:23.034Z,94398
2023-07-02T10:08:48.053Z,94412
2023-07-02T10:12:13.209Z,94405
2023-07-02T10:15:38.396Z,94411
2023-07-02T10:19:03.570Z,94413
2023-07-02T10:22:28.732Z,94403
2023-07-02T10:25:53.938Z,94411
2023-07-02T10:29:19.104Z,94404
2023-07-02T10:32:44.357Z,94402
2023-07-02T10:36:09.505Z,94409
2023-07-02T10:39:34.647Z,94404
2023-07-02T10:42:59.835Z,94406
2023-07-02T10:46:25.014Z,94405
2023-07-02T10:49:50.180Z,94412
2023-07-02T10:53:15.386Z,94414
2023-07-02T10:56:40.571Z,94415
2023-07-02T11:00:05.732Z,94419
2023-07-02T11:03:30.962Z,94421
2023-07-02T11:06:56.074Z,94414
2023-07-02T11:10:21.313Z,94412
2023-07-02T11:13:46.460Z,94420
2023-07-02T11:17:11.665Z,94417
2023-07-02T11:20:36.847Z,94413
2023-07-02T11:24:02.028Z,94409
2023-07-02T11:27:27.201Z,94410
2023-07-02T11:30:52.404Z,94416
2023-07-02T11:34:19.093Z,94412
2023-07-02T11:37:42.715Z,94412
2023-07-02T11:41:07.928Z,94410
2023-07-02T11:44:33.125Z,94412
2023-07-02T11:47:58.295Z,94418
2023-07-02T11:51:23.425Z,94420
2023-07-02T11:54:48.599Z,94413
2023-07-02T11:58:13.784Z,94425
2023-07-02T12:01:39.027Z,94415
2023-07-02T12:05:05.839Z,94417
2023-07-02T12:08:29.277Z,94413
2023-07-02T12:11:54.454Z,94411
2023-07-02T12:15:19.614Z,94421
2023-07-02T12:18:44.825Z,94418
2023-07-02T12:22:09.961Z,94419
2023-07-02T12:25:35.138Z,94429
2023-07-02T12:29:00.328Z,94432
2023-07-02T12:32:25.532Z,94425
2023-07-02T12:35:50.825Z,94426
2023-07-02T12:39:18.064Z,94423
2023-07-02T12:42:41.023Z,94418
2023-07-02T12:46:06.219Z,94425
2023-07-02T12:49:31.359Z,94440
2023-07-02T12:52:56.584Z,94440
2023-07-02T12:56:21.712Z,94440
2023-07-02T12:59:46.925Z,94431
2023-07-02T13:03:12.087Z,94428
2023-07-02T13:06:37.209Z,94430
2023-07-02T13:10:02.397Z,94435
2023-07-02T13:13:29.126Z,94436
2023-07-02T13:16:52.726Z,94431
2023-07-02T13:20:17.869Z,94440
2023-07-02T13:23:43.049Z,94446
2023-07-02T13:27:08.255Z,94449
2023-07-02T13:30:33.398Z,94455
2023-07-02T13:33:58.566Z,94460
2023-07-02T13:37:23.736Z,94456
2023-07-02T13:40:48.882Z,94453
2023-07-02T13:44:14.097Z,94460
2023-07-02T13:47:39.245Z,94462
2023-07-02T13:51:04.447Z,94439
2023-07-02T13:54:29.567Z,94439
2023-07-02T13:57:54.714Z,94438
2023-07-02T14:01:19.906Z,94446
2023-07-02T14:04:45.097Z,94442
2023-07-02T14:08:10.221Z,94444
2023-07-02T14:11:35.383Z,94438
2023-07-02T14:15:00.573Z,94443
2023-07-02T14:18:25.766Z,94441
2023-07-02T14:21:50.911Z,94455
2023-07-02T14:25:22.323Z,94451
2023-07-02T14:28:41.238Z,94448
2023-07-02T14:32:06.439Z,94453
2023-07-02T14:35:31.665Z,94445
2023-07-02T14:38:56.826Z,94443
2023-07-02T14:42:21.981Z,94451
2023-07-02T14:45:47.307Z,94448
2023-07-02T14:49:12.362Z,94442
2023-07-02T14:52:37.550Z,94449
2023-07-02T14:56:02.708Z,94453
2023-07-02T14:59:27.897Z,94456
2023-07-02T15:02:53.259Z,94459
2023-07-02T15:06:18.277Z,94456
2023-07-02T15:09:43.470Z,94455
2023-07-02T15:47:36.757Z,94447
2023-07-02T15:51:01.896Z,94443
2023-07-02T15:54:27.114Z,94444
2023-07-02T15:57:52.244Z,94442
2023-07-02T16:01:17.405Z,94444
2023-07-02T16:04:42.686Z,94441
2023-07-02T16:08:07.778Z,94447
2023-07-02T16:11:32.933Z,94444
2023-07-02T16:14:58.140Z,94445
2023-07-02T16:18:23.338Z,94441
2023-07-02T16:21:48.552Z,94444
2023-07-02T16:25:13.712Z,94446
2023-07-02T16:28:38.950Z,94445
2023-07-02T16:32:04.071Z,94444
2023-07-02T16:35:29.213Z,94447
2023-07-02T16:38:54.417Z,94442
2023-07-02T16:42:19.599Z,94436
2023-07-02T16:45:44.807Z,94436
2023-07-02T16:49:09.968Z,94435
2023-07-02T16:52:35.141Z,94447
2023-07-02T16:56:00.348Z,94451
2023-07-02T16:59:25.537Z,94448
2023-07-02T17:02:50.766Z,94454
2023-07-02T17:06:15.828Z,94452
2023-07-02T17:09:40.997Z,94451
2023-07-02T17:13:06.267Z,94454
2023-07-02T17:16:31.387Z,94455
2023-07-02T17:19:56.580Z,94448
2023-07-02T17:23:21.743Z,94446
2023-07-02T17:26:47.078Z,94447
2023-07-02T17:30:12.383Z,94448
2023-07-02T17:33:37.584Z,94449
2023-07-02T17:37:02.885Z,94444
2023-07-02T17:40:28.527Z,94456
2023-07-02T17:43:53.765Z,94454
2023-07-02T17:47:19.174Z,94449
2023-07-02T17:50:44.223Z,94448
2023-07-02T17:54:09.469Z,94454
2023-07-02T17:57:34.701Z,94450
2023-07-02T18:01:00.395Z,94458
2023-07-02T18:04:25.736Z,94458
2023-07-02T18:07:53.116Z,94457
2023-07-02T18:11:18.341Z,94454
2023-07-02T18:14:43.661Z,94452
2023-07-02T18:18:08.892Z,94459
2023-07-02T18:21:34.190Z,94464
2023-07-02T18:24:59.383Z,94464
2023-07-02T18:28:26.427Z,94463
2023-07-02T18:31:49.883Z,94466
2023-07-02T18:35:15.137Z,94470
2023-07-02T18:38:40.390Z,94471
2023-07-02T18:42:05.629Z,94478
2023-07-02T18:45:30.879Z,94474
2023-07-02T18:48:56.104Z,94469
2023-07-02T18:52:21.322Z,94471
2023-07-02T18:55:46.776Z,94474
2023-07-02T18:59:11.818Z,94479
2023-07-02T19:02:37.115Z,94481
2023-07-02T19:06:02.430Z,94480
2023-07-02T19:09:27.676Z,94478
2023-07-02T19:12:52.934Z,94480
2023-07-02T19:16:18.206Z,94487
2023-07-02T19:19:43.447Z,94485
2023-07-02T19:23:08.739Z,94485
2023-07-02T19:26:33.982Z,94488
2023-07-02T19:29:59.264Z,94497
2023-07-02T19:33:24.500Z,94505
2023-07-02T19:36:49.767Z,94506
2023-07-02T19:40:14.990Z,94512
2023-07-02T19:43:40.262Z,94519
2023-07-02T19:47:05.565Z,94527
2023-07-02T19:50:30.774Z,94527
2023-07-02T19:53:56.006Z,94531
2023-07-02T19:57:21.249Z,94536
2023-07-02T20:00:46.499Z,94532
2023-07-02T20:04:11.839Z,94537
2023-07-02T20:07:36.987Z,94536
2023-07-02T20:11:02.216Z,94543
2023-07-02T20:14:27.456Z,94543
2023-07-02T20:17:52.730Z,94544
2023-07-02T20:21:17.954Z,94545
2023-07-02T20:24:43.177Z,94547
2023-07-02T20:28:08.437Z,94546
2023-07-02T20:31:33.756Z,94548
2023-07-02T20:34:58.905Z,94551
2023-07-02T20:38:24.186Z,94549
2023-07-02T20:41:49.461Z,94547
2023-07-02T20:45:14.716Z,94553
2023-07-02T20:48:39.979Z,94557
2023-07-02T20:52:05.235Z,94565
2023-07-02T20:55:30.496Z,94564
2023-07-02T20:58:55.692Z,94561
2023-07-02T21:02:20.943Z,94563
2023-07-02T21:05:46.195Z,94562
2023-07-02T21:09:11.402Z,94558
2023-07-02T21:12:36.665Z,94562
2023-07-02T21:16:01.890Z,94566
2023-07-02T21:19:27.115Z,94567
2023-07-02T21:22:52.352Z,94565
2023-07-02T21:26:17.601Z,94569
2023-07-02T21:29:42.888Z,94573
2023-07-02T21:33:08.152Z,94572
2023-07-02T21:36:33.365Z,94574
2023-07-02T21:39:58.615Z,94581
2023-07-02T21:43:25.950Z,94575
2023-07-02T21:46:49.257Z,94584
2023-07-02T21:50:14.386Z,94584
2023-07-02T21:53:39.624Z,94581
2023-07-02T21:57:04.873Z,94579
2023-07-02T22:00:30.095Z,94576
2023-07-02T22:03:55.365Z,94575
2023-07-02T22:07:20.582Z,94572
2023-07-02T22:10:45.815Z,94574
2023-07-02T22:14:11.050Z,94568
2023-07-02T22:17:36.367Z,94568
2023-07-02T22:21:01.538Z,94566
2023-07-02T22:24:26.741Z,94566
2023-07-02T22:27:51.991Z,94569
2023-07-02T22:31:17.242Z,94570
2023-07-02T22:34:42.459Z,94563
2023-07-02T22:38:07.758Z,94562
2023-07-02T22:41:32.962Z,94558
2023-07-02T22:44:58.221Z,94555
2023-07-02T22:48:23.471Z,94552
2023-07-02T22:51:48.739Z,94548
2023-07-02T22:55:13.988Z,94552
2023-07-02T22:58:39.201Z,94557
2023-07-02T23:02:04.451Z,94547
2023-07-02T23:05:29.804Z,94543
2023-07-02T23:08:54.979Z,94547
2023-07-02T23:12:20.288Z,94541
2023-07-02T23:15:45.480Z,94536
2023-07-02T23:19:10.728Z,94530
2023-07-02T23:22:35.975Z,94529
2023-07-02T23:26:01.276Z,94525
2023-07-02T23:29:26.528Z,94530
2023-07-02T23:32:51.768Z,94522
2023-07-02T23:36:16.976Z,94520
2023-07-02T23:39:42.218Z,94517
2023-07-02T23:43:07.497Z,94516
2023-07-02T23:46:32.757Z,94518
2023-07-02T23:49:57.918Z,94515
2023-07-02T23:53:23.155Z,94514
2023-07-02T23:56:48.397Z,94514
